sensor_id;sensor_type;location;lat;lon;timestamp;P1;durP1;ratioP1;P2;durP2;ratioP2
75814;SDS011;70031;45.570;14.228;2023-06-26T00:00:35;8.50;;;4.30;;
75814;SDS011;70031;45.570;14.228;2023-06-26T00:02:37;11.07;;;4.60;;
75814;SDS011;70031;45.570;14.228;2023-06-26T00:04:37;8.55;;;4.55;;
75814;SDS011;70031;45.570;14.228;2023-06-26T00:06:41;8.30;;;4.32;;
75814;SDS011;70031;45.570;14.228;2023-06-26T00:08:42;6.72;;;3.70;;
75814;SDS011;70031;45.570;14.228;2023-06-26T00:10:43;7.45;;;4.18;;
75814;SDS011;70031;45.570;14.228;2023-06-26T00:12:44;8.50;;;4.47;;
75814;SDS011;70031;45.570;14.228;2023-06-26T00:14:44;8.25;;;4.45;;
75814;SDS011;70031;45.570;14.228;2023-06-26T00:16:44;8.80;;;4.60;;
75814;SDS011;70031;45.570;14.228;2023-06-26T00:18:48;7.35;;;4.18;;
75814;SDS011;70031;45.570;14.228;2023-06-26T00:20:48;8.20;;;4.28;;
75814;SDS011;70031;45.570;14.228;2023-06-26T00:22:49;8.10;;;4.22;;
75814;SDS011;70031;45.570;14.228;2023-06-26T00:24:50;7.07;;;4.07;;
75814;SDS011;70031;45.570;14.228;2023-06-26T00:26:51;7.30;;;3.80;;
75814;SDS011;70031;45.570;14.228;2023-06-26T00:28:51;12.45;;;4.45;;
75814;SDS011;70031;45.570;14.228;2023-06-26T00:30:54;9.27;;;4.13;;
75814;SDS011;70031;45.570;14.228;2023-06-26T00:32:55;8.38;;;4.30;;
75814;SDS011;70031;45.570;14.228;2023-06-26T00:34:58;7.78;;;4.18;;
75814;SDS011;70031;45.570;14.228;2023-06-26T00:37:04;9.88;;;4.22;;
75814;SDS011;70031;45.570;14.228;2023-06-26T00:39:09;8.25;;;4.35;;
75814;SDS011;70031;45.570;14.228;2023-06-26T00:41:13;8.13;;;4.47;;
75814;SDS011;70031;45.570;14.228;2023-06-26T00:43:14;8.23;;;4.20;;
75814;SDS011;70031;45.570;14.228;2023-06-26T00:45:20;8.07;;;4.25;;
75814;SDS011;70031;45.570;14.228;2023-06-26T00:47:20;7.85;;;4.18;;
75814;SDS011;70031;45.570;14.228;2023-06-26T00:49:21;8.85;;;4.30;;
75814;SDS011;70031;45.570;14.228;2023-06-26T00:51:24;8.38;;;4.65;;
75814;SDS011;70031;45.570;14.228;2023-06-26T00:55:32;7.25;;;3.88;;
75814;SDS011;70031;45.570;14.228;2023-06-26T00:57:35;8.82;;;4.78;;
75814;SDS011;70031;45.570;14.228;2023-06-26T00:59:44;8.52;;;4.20;;
75814;SDS011;70031;45.570;14.228;2023-06-26T01:01:45;8.18;;;3.88;;
75814;SDS011;70031;45.570;14.228;2023-06-26T01:03:46;9.73;;;4.75;;
75814;SDS011;70031;45.570;14.228;2023-06-26T01:05:56;9.07;;;4.20;;
75814;SDS011;70031;45.570;14.228;2023-06-26T01:08:01;7.55;;;4.22;;
75814;SDS011;70031;45.570;14.228;2023-06-26T01:10:03;7.68;;;4.55;;
75814;SDS011;70031;45.570;14.228;2023-06-26T01:12:07;7.90;;;4.13;;
75814;SDS011;70031;45.570;14.228;2023-06-26T01:14:08;8.63;;;4.32;;
75814;SDS011;70031;45.570;14.228;2023-06-26T01:16:08;7.45;;;4.00;;
75814;SDS011;70031;45.570;14.228;2023-06-26T01:18:12;7.85;;;4.57;;
75814;SDS011;70031;45.570;14.228;2023-06-26T01:20:17;6.72;;;3.50;;
75814;SDS011;70031;45.570;14.228;2023-06-26T01:22:29;8.82;;;4.40;;
75814;SDS011;70031;45.570;14.228;2023-06-26T01:24:35;8.95;;;4.13;;
75814;SDS011;70031;45.570;14.228;2023-06-26T01:26:49;8.25;;;3.83;;
75814;SDS011;70031;45.570;14.228;2023-06-26T01:28:51;7.78;;;4.38;;
75814;SDS011;70031;45.570;14.228;2023-06-26T01:30:57;9.45;;;3.90;;
75814;SDS011;70031;45.570;14.228;2023-06-26T01:33:02;10.27;;;4.35;;
75814;SDS011;70031;45.570;14.228;2023-06-26T01:35:04;8.25;;;3.90;;
75814;SDS011;70031;45.570;14.228;2023-06-26T01:37:07;9.63;;;4.20;;
75814;SDS011;70031;45.570;14.228;2023-06-26T01:39:08;9.77;;;4.57;;
75814;SDS011;70031;45.570;14.228;2023-06-26T01:41:08;8.20;;;4.18;;
75814;SDS011;70031;45.570;14.228;2023-06-26T01:45:36;7.95;;;4.28;;
75814;SDS011;70031;45.570;14.228;2023-06-26T01:47:44;9.02;;;4.13;;
75814;SDS011;70031;45.570;14.228;2023-06-26T01:55:05;9.85;;;4.38;;
75814;SDS011;70031;45.570;14.228;2023-06-26T01:57:29;7.88;;;4.45;;
75814;SDS011;70031;45.570;14.228;2023-06-26T01:59:31;8.32;;;5.15;;
75814;SDS011;70031;45.570;14.228;2023-06-26T02:01:33;9.32;;;4.80;;
75814;SDS011;70031;45.570;14.228;2023-06-26T02:03:36;10.35;;;5.20;;
75814;SDS011;70031;45.570;14.228;2023-06-26T02:05:40;8.48;;;5.13;;
75814;SDS011;70031;45.570;14.228;2023-06-26T02:07:43;9.77;;;5.07;;
75814;SDS011;70031;45.570;14.228;2023-06-26T02:11:49;9.70;;;4.82;;
75814;SDS011;70031;45.570;14.228;2023-06-26T02:13:49;9.40;;;5.20;;
75814;SDS011;70031;45.570;14.228;2023-06-26T02:15:49;8.52;;;5.05;;
75814;SDS011;70031;45.570;14.228;2023-06-26T02:17:53;9.50;;;4.63;;
75814;SDS011;70031;45.570;14.228;2023-06-26T02:19:56;9.90;;;4.70;;
75814;SDS011;70031;45.570;14.228;2023-06-26T02:21:59;10.30;;;4.95;;
75814;SDS011;70031;45.570;14.228;2023-06-26T02:24:02;11.13;;;4.45;;
75814;SDS011;70031;45.570;14.228;2023-06-26T02:26:05;8.65;;;4.75;;
75814;SDS011;70031;45.570;14.228;2023-06-26T02:28:11;10.52;;;5.22;;
75814;SDS011;70031;45.570;14.228;2023-06-26T02:30:11;8.98;;;4.60;;
75814;SDS011;70031;45.570;14.228;2023-06-26T02:32:12;11.48;;;3.95;;
75814;SDS011;70031;45.570;14.228;2023-06-26T02:34:12;8.55;;;4.40;;
75814;SDS011;70031;45.570;14.228;2023-06-26T02:36:13;7.35;;;4.28;;
75814;SDS011;70031;45.570;14.228;2023-06-26T02:40:16;7.32;;;3.97;;
75814;SDS011;70031;45.570;14.228;2023-06-26T02:42:17;9.48;;;4.45;;
75814;SDS011;70031;45.570;14.228;2023-06-26T02:44:17;7.30;;;3.47;;
75814;SDS011;70031;45.570;14.228;2023-06-26T02:46:18;11.75;;;4.45;;
75814;SDS011;70031;45.570;14.228;2023-06-26T02:48:18;8.95;;;4.85;;
75814;SDS011;70031;45.570;14.228;2023-06-26T02:50:21;10.13;;;4.43;;
75814;SDS011;70031;45.570;14.228;2023-06-26T02:52:22;9.32;;;4.05;;
75814;SDS011;70031;45.570;14.228;2023-06-26T02:54:22;5.60;;;3.08;;
75814;SDS011;70031;45.570;14.228;2023-06-26T02:56:23;7.97;;;3.10;;
75814;SDS011;70031;45.570;14.228;2023-06-26T02:58:26;8.32;;;4.05;;
75814;SDS011;70031;45.570;14.228;2023-06-26T03:00:26;7.25;;;3.95;;
75814;SDS011;70031;45.570;14.228;2023-06-26T03:02:29;9.07;;;4.20;;
75814;SDS011;70031;45.570;14.228;2023-06-26T03:04:30;8.38;;;4.22;;
75814;SDS011;70031;45.570;14.228;2023-06-26T03:06:30;8.35;;;4.32;;
75814;SDS011;70031;45.570;14.228;2023-06-26T03:08:30;7.35;;;4.07;;
75814;SDS011;70031;45.570;14.228;2023-06-26T03:10:32;9.05;;;4.60;;
75814;SDS011;70031;45.570;14.228;2023-06-26T03:12:32;7.97;;;3.53;;
75814;SDS011;70031;45.570;14.228;2023-06-26T03:14:32;8.75;;;4.32;;
75814;SDS011;70031;45.570;14.228;2023-06-26T03:16:33;8.32;;;4.20;;
75814;SDS011;70031;45.570;14.228;2023-06-26T03:18:33;7.18;;;3.90;;
75814;SDS011;70031;45.570;14.228;2023-06-26T03:20:34;9.95;;;4.10;;
75814;SDS011;70031;45.570;14.228;2023-06-26T03:22:34;6.63;;;4.00;;
75814;SDS011;70031;45.570;14.228;2023-06-26T03:24:34;7.88;;;3.92;;
75814;SDS011;70031;45.570;14.228;2023-06-26T03:26:35;7.28;;;4.05;;
75814;SDS011;70031;45.570;14.228;2023-06-26T03:30:38;7.97;;;4.43;;
75814;SDS011;70031;45.570;14.228;2023-06-26T03:32:38;7.32;;;3.70;;
75814;SDS011;70031;45.570;14.228;2023-06-26T03:34:38;7.97;;;4.07;;
75814;SDS011;70031;45.570;14.228;2023-06-26T03:36:41;8.68;;;4.30;;
75814;SDS011;70031;45.570;14.228;2023-06-26T03:38:42;11.13;;;4.03;;
75814;SDS011;70031;45.570;14.228;2023-06-26T03:40:42;12.18;;;4.78;;
75814;SDS011;70031;45.570;14.228;2023-06-26T03:42:45;9.07;;;4.78;;
75814;SDS011;70031;45.570;14.228;2023-06-26T03:44:46;9.10;;;4.53;;
75814;SDS011;70031;45.570;14.228;2023-06-26T03:46:46;9.75;;;4.35;;
75814;SDS011;70031;45.570;14.228;2023-06-26T03:48:47;10.52;;;4.13;;
75814;SDS011;70031;45.570;14.228;2023-06-26T03:50:49;12.23;;;4.88;;
75814;SDS011;70031;45.570;14.228;2023-06-26T03:52:52;8.68;;;4.70;;
75814;SDS011;70031;45.570;14.228;2023-06-26T03:54:56;9.55;;;4.55;;
75814;SDS011;70031;45.570;14.228;2023-06-26T03:57:00;8.23;;;4.80;;
75814;SDS011;70031;45.570;14.228;2023-06-26T03:59:00;9.77;;;5.00;;
75814;SDS011;70031;45.570;14.228;2023-06-26T04:01:00;10.68;;;5.32;;
75814;SDS011;70031;45.570;14.228;2023-06-26T04:03:01;13.63;;;5.28;;
75814;SDS011;70031;45.570;14.228;2023-06-26T04:05:02;9.15;;;5.30;;
75814;SDS011;70031;45.570;14.228;2023-06-26T04:07:04;10.93;;;4.70;;
75814;SDS011;70031;45.570;14.228;2023-06-26T04:09:05;9.30;;;4.35;;
75814;SDS011;70031;45.570;14.228;2023-06-26T04:11:05;9.13;;;5.15;;
75814;SDS011;70031;45.570;14.228;2023-06-26T04:13:06;10.52;;;5.38;;
75814;SDS011;70031;45.570;14.228;2023-06-26T04:15:07;8.48;;;4.88;;
75814;SDS011;70031;45.570;14.228;2023-06-26T04:17:07;8.93;;;4.45;;
75814;SDS011;70031;45.570;14.228;2023-06-26T04:19:08;9.13;;;5.18;;
75814;SDS011;70031;45.570;14.228;2023-06-26T04:21:13;10.77;;;5.63;;
75814;SDS011;70031;45.570;14.228;2023-06-26T04:23:13;11.30;;;6.10;;
75814;SDS011;70031;45.570;14.228;2023-06-26T04:27:16;10.32;;;5.13;;
75814;SDS011;70031;45.570;14.228;2023-06-26T04:29:17;9.25;;;5.18;;
75814;SDS011;70031;45.570;14.228;2023-06-26T04:31:17;9.90;;;5.53;;
75814;SDS011;70031;45.570;14.228;2023-06-26T04:33:18;10.07;;;5.53;;
75814;SDS011;70031;45.570;14.228;2023-06-26T04:35:18;10.38;;;5.43;;
75814;SDS011;70031;45.570;14.228;2023-06-26T04:37:20;10.05;;;5.53;;
75814;SDS011;70031;45.570;14.228;2023-06-26T04:39:20;9.65;;;5.50;;
75814;SDS011;70031;45.570;14.228;2023-06-26T04:41:21;10.25;;;5.90;;
75814;SDS011;70031;45.570;14.228;2023-06-26T04:43:21;11.10;;;5.60;;
75814;SDS011;70031;45.570;14.228;2023-06-26T04:45:21;8.90;;;4.80;;
75814;SDS011;70031;45.570;14.228;2023-06-26T04:47:22;9.07;;;4.95;;
75814;SDS011;70031;45.570;14.228;2023-06-26T04:49:22;10.50;;;6.07;;
75814;SDS011;70031;45.570;14.228;2023-06-26T04:51:23;11.15;;;5.80;;
75814;SDS011;70031;45.570;14.228;2023-06-26T04:53:28;11.55;;;6.75;;
75814;SDS011;70031;45.570;14.228;2023-06-26T04:55:29;12.70;;;6.88;;
75814;SDS011;70031;45.570;14.228;2023-06-26T04:57:30;10.43;;;6.93;;
75814;SDS011;70031;45.570;14.228;2023-06-26T04:59:31;12.90;;;7.00;;
75814;SDS011;70031;45.570;14.228;2023-06-26T05:01:31;11.27;;;6.65;;
75814;SDS011;70031;45.570;14.228;2023-06-26T05:03:32;10.43;;;6.13;;
75814;SDS011;70031;45.570;14.228;2023-06-26T05:05:32;10.88;;;5.53;;
75814;SDS011;70031;45.570;14.228;2023-06-26T05:07:33;10.00;;;6.40;;
75814;SDS011;70031;45.570;14.228;2023-06-26T05:09:33;9.73;;;5.57;;
75814;SDS011;70031;45.570;14.228;2023-06-26T05:11:34;12.27;;;6.13;;
75814;SDS011;70031;45.570;14.228;2023-06-26T05:13:34;12.60;;;6.32;;
75814;SDS011;70031;45.570;14.228;2023-06-26T05:15:34;10.10;;;6.55;;
75814;SDS011;70031;45.570;14.228;2023-06-26T05:17:35;12.60;;;7.53;;
75814;SDS011;70031;45.570;14.228;2023-06-26T05:19:35;10.45;;;6.22;;
75814;SDS011;70031;45.570;14.228;2023-06-26T05:21:35;11.75;;;7.50;;
75814;SDS011;70031;45.570;14.228;2023-06-26T05:23:36;11.63;;;6.95;;
75814;SDS011;70031;45.570;14.228;2023-06-26T05:25:37;12.50;;;7.30;;
75814;SDS011;70031;45.570;14.228;2023-06-26T05:27:38;10.45;;;6.50;;
75814;SDS011;70031;45.570;14.228;2023-06-26T05:29:38;12.18;;;7.43;;
75814;SDS011;70031;45.570;14.228;2023-06-26T05:31:40;10.93;;;6.10;;
75814;SDS011;70031;45.570;14.228;2023-06-26T05:33:43;13.48;;;7.38;;
75814;SDS011;70031;45.570;14.228;2023-06-26T05:35:47;11.65;;;6.45;;
75814;SDS011;70031;45.570;14.228;2023-06-26T05:37:49;13.43;;;8.77;;
75814;SDS011;70031;45.570;14.228;2023-06-26T05:39:50;14.32;;;9.93;;
75814;SDS011;70031;45.570;14.228;2023-06-26T05:41:51;18.17;;;11.65;;
75814;SDS011;70031;45.570;14.228;2023-06-26T05:43:51;18.02;;;11.85;;
75814;SDS011;70031;45.570;14.228;2023-06-26T05:45:54;18.92;;;12.48;;
75814;SDS011;70031;45.570;14.228;2023-06-26T05:47:54;15.98;;;11.10;;
75814;SDS011;70031;45.570;14.228;2023-06-26T05:49:55;15.52;;;10.40;;
75814;SDS011;70031;45.570;14.228;2023-06-26T05:51:55;14.85;;;8.75;;
75814;SDS011;70031;45.570;14.228;2023-06-26T05:53:56;14.18;;;9.45;;
75814;SDS011;70031;45.570;14.228;2023-06-26T05:55:57;14.18;;;7.07;;
75814;SDS011;70031;45.570;14.228;2023-06-26T05:57:58;14.07;;;7.15;;
75814;SDS011;70031;45.570;14.228;2023-06-26T06:00:01;12.18;;;6.65;;
75814;SDS011;70031;45.570;14.228;2023-06-26T06:02:03;10.27;;;5.55;;
75814;SDS011;70031;45.570;14.228;2023-06-26T06:04:06;8.38;;;5.40;;
75814;SDS011;70031;45.570;14.228;2023-06-26T06:06:09;10.75;;;6.00;;
75814;SDS011;70031;45.570;14.228;2023-06-26T06:08:10;10.07;;;5.75;;
75814;SDS011;70031;45.570;14.228;2023-06-26T06:10:11;8.98;;;5.75;;
75814;SDS011;70031;45.570;14.228;2023-06-26T06:12:21;11.60;;;6.03;;
75814;SDS011;70031;45.570;14.228;2023-06-26T06:14:22;12.98;;;6.13;;
75814;SDS011;70031;45.570;14.228;2023-06-26T06:16:28;12.60;;;6.57;;
75814;SDS011;70031;45.570;14.228;2023-06-26T06:18:29;16.38;;;7.72;;
75814;SDS011;70031;45.570;14.228;2023-06-26T06:20:34;10.50;;;6.32;;
75814;SDS011;70031;45.570;14.228;2023-06-26T06:22:43;15.52;;;8.45;;
75814;SDS011;70031;45.570;14.228;2023-06-26T06:25:07;10.15;;;6.25;;
75814;SDS011;70031;45.570;14.228;2023-06-26T06:27:29;11.80;;;7.32;;
75814;SDS011;70031;45.570;14.228;2023-06-26T06:29:30;10.23;;;6.70;;
75814;SDS011;70031;45.570;14.228;2023-06-26T06:31:33;12.82;;;7.80;;
75814;SDS011;70031;45.570;14.228;2023-06-26T06:33:36;13.55;;;7.80;;
75814;SDS011;70031;45.570;14.228;2023-06-26T06:35:39;11.57;;;6.78;;
75814;SDS011;70031;45.570;14.228;2023-06-26T06:37:47;11.88;;;7.38;;
75814;SDS011;70031;45.570;14.228;2023-06-26T06:39:48;12.50;;;7.45;;
75814;SDS011;70031;45.570;14.228;2023-06-26T06:41:56;14.57;;;8.05;;
75814;SDS011;70031;45.570;14.228;2023-06-26T06:43:57;13.88;;;7.07;;
75814;SDS011;70031;45.570;14.228;2023-06-26T06:46:00;10.60;;;6.45;;
75814;SDS011;70031;45.570;14.228;2023-06-26T06:48:04;15.65;;;9.38;;
75814;SDS011;70031;45.570;14.228;2023-06-26T06:50:11;13.60;;;7.30;;
75814;SDS011;70031;45.570;14.228;2023-06-26T06:52:16;14.13;;;6.90;;
75814;SDS011;70031;45.570;14.228;2023-06-26T06:54:55;12.07;;;7.22;;
75814;SDS011;70031;45.570;14.228;2023-06-26T06:56:59;10.65;;;6.13;;
75814;SDS011;70031;45.570;14.228;2023-06-26T06:59:02;9.88;;;6.05;;
75814;SDS011;70031;45.570;14.228;2023-06-26T07:01:03;13.13;;;7.97;;
75814;SDS011;70031;45.570;14.228;2023-06-26T07:03:07;13.10;;;6.93;;
75814;SDS011;70031;45.570;14.228;2023-06-26T07:05:13;11.40;;;6.88;;
75814;SDS011;70031;45.570;14.228;2023-06-26T07:07:17;15.30;;;7.60;;
75814;SDS011;70031;45.570;14.228;2023-06-26T07:09:19;12.70;;;7.00;;
75814;SDS011;70031;45.570;14.228;2023-06-26T07:11:22;13.57;;;7.05;;
75814;SDS011;70031;45.570;14.228;2023-06-26T07:13:23;11.27;;;5.85;;
75814;SDS011;70031;45.570;14.228;2023-06-26T07:15:24;11.88;;;7.20;;
75814;SDS011;70031;45.570;14.228;2023-06-26T07:17:24;12.45;;;7.43;;
75814;SDS011;70031;45.570;14.228;2023-06-26T07:19:26;9.50;;;6.72;;
75814;SDS011;70031;45.570;14.228;2023-06-26T07:21:26;12.73;;;7.78;;
75814;SDS011;70031;45.570;14.228;2023-06-26T07:23:26;11.73;;;6.03;;
75814;SDS011;70031;45.570;14.228;2023-06-26T07:25:27;10.10;;;5.70;;
75814;SDS011;70031;45.570;14.228;2023-06-26T07:27:27;10.50;;;6.93;;
75814;SDS011;70031;45.570;14.228;2023-06-26T07:29:28;12.02;;;6.35;;
75814;SDS011;70031;45.570;14.228;2023-06-26T07:31:28;15.10;;;7.45;;
75814;SDS011;70031;45.570;14.228;2023-06-26T07:33:31;13.60;;;8.27;;
75814;SDS011;70031;45.570;14.228;2023-06-26T07:35:31;12.63;;;7.18;;
75814;SDS011;70031;45.570;14.228;2023-06-26T07:37:32;12.88;;;8.30;;
75814;SDS011;70031;45.570;14.228;2023-06-26T07:39:33;13.75;;;7.70;;
75814;SDS011;70031;45.570;14.228;2023-06-26T07:41:33;13.63;;;8.57;;
75814;SDS011;70031;45.570;14.228;2023-06-26T07:43:33;13.23;;;7.93;;
75814;SDS011;70031;45.570;14.228;2023-06-26T07:45:34;18.70;;;11.05;;
75814;SDS011;70031;45.570;14.228;2023-06-26T07:47:34;17.60;;;9.18;;
75814;SDS011;70031;45.570;14.228;2023-06-26T07:49:39;11.10;;;7.03;;
75814;SDS011;70031;45.570;14.228;2023-06-26T07:51:40;12.32;;;6.50;;
75814;SDS011;70031;45.570;14.228;2023-06-26T07:53:41;9.60;;;5.55;;
75814;SDS011;70031;45.570;14.228;2023-06-26T07:55:42;10.35;;;6.20;;
75814;SDS011;70031;45.570;14.228;2023-06-26T07:57:42;10.32;;;6.30;;
75814;SDS011;70031;45.570;14.228;2023-06-26T07:59:43;12.27;;;6.72;;
75814;SDS011;70031;45.570;14.228;2023-06-26T08:01:43;9.68;;;6.57;;
75814;SDS011;70031;45.570;14.228;2023-06-26T08:03:44;10.65;;;5.82;;
75814;SDS011;70031;45.570;14.228;2023-06-26T08:05:47;11.45;;;6.45;;
75814;SDS011;70031;45.570;14.228;2023-06-26T08:07:47;12.55;;;6.93;;
75814;SDS011;70031;45.570;14.228;2023-06-26T08:09:48;11.02;;;7.20;;
75814;SDS011;70031;45.570;14.228;2023-06-26T08:11:48;12.63;;;6.50;;
75814;SDS011;70031;45.570;14.228;2023-06-26T08:13:49;14.45;;;9.30;;
75814;SDS011;70031;45.570;14.228;2023-06-26T08:15:52;14.85;;;9.00;;
75814;SDS011;70031;45.570;14.228;2023-06-26T08:17:52;13.57;;;8.52;;
75814;SDS011;70031;45.570;14.228;2023-06-26T08:19:53;13.77;;;9.02;;
75814;SDS011;70031;45.570;14.228;2023-06-26T08:21:53;7.40;;;4.82;;
75814;SDS011;70031;45.570;14.228;2023-06-26T08:23:54;8.07;;;5.15;;
75814;SDS011;70031;45.570;14.228;2023-06-26T08:26:03;10.52;;;5.95;;
75814;SDS011;70031;45.570;14.228;2023-06-26T08:28:08;8.13;;;4.78;;
75814;SDS011;70031;45.570;14.228;2023-06-26T08:30:09;7.75;;;5.03;;
75814;SDS011;70031;45.570;14.228;2023-06-26T08:32:15;8.48;;;4.88;;
75814;SDS011;70031;45.570;14.228;2023-06-26T08:34:15;7.80;;;4.97;;
75814;SDS011;70031;45.570;14.228;2023-06-26T08:36:21;8.02;;;4.97;;
75814;SDS011;70031;45.570;14.228;2023-06-26T08:38:22;10.32;;;5.00;;
75814;SDS011;70031;45.570;14.228;2023-06-26T08:40:22;7.82;;;4.78;;
75814;SDS011;70031;45.570;14.228;2023-06-26T08:42:23;9.10;;;5.43;;
75814;SDS011;70031;45.570;14.228;2023-06-26T08:44:24;8.55;;;5.18;;
75814;SDS011;70031;45.570;14.228;2023-06-26T08:46:24;7.45;;;5.07;;
75814;SDS011;70031;45.570;14.228;2023-06-26T08:48:25;7.78;;;4.82;;
75814;SDS011;70031;45.570;14.228;2023-06-26T08:50:28;8.95;;;4.43;;
75814;SDS011;70031;45.570;14.228;2023-06-26T08:52:41;7.78;;;3.55;;
75814;SDS011;70031;45.570;14.228;2023-06-26T08:54:49;6.22;;;3.55;;
75814;SDS011;70031;45.570;14.228;2023-06-26T08:56:55;5.50;;;3.20;;
75814;SDS011;70031;45.570;14.228;2023-06-26T08:58:57;8.52;;;3.53;;
75814;SDS011;70031;45.570;14.228;2023-06-26T09:00:58;5.63;;;3.40;;
75814;SDS011;70031;45.570;14.228;2023-06-26T09:02:59;5.57;;;3.38;;
75814;SDS011;70031;45.570;14.228;2023-06-26T09:05:03;6.88;;;3.35;;
75814;SDS011;70031;45.570;14.228;2023-06-26T09:07:04;5.70;;;3.30;;
75814;SDS011;70031;45.570;14.228;2023-06-26T09:09:05;5.18;;;3.17;;
75814;SDS011;70031;45.570;14.228;2023-06-26T09:11:05;6.65;;;3.60;;
75814;SDS011;70031;45.570;14.228;2023-06-26T09:13:14;6.70;;;3.70;;
75814;SDS011;70031;45.570;14.228;2023-06-26T09:15:24;7.00;;;3.47;;
75814;SDS011;70031;45.570;14.228;2023-06-26T09:17:25;5.63;;;3.38;;
75814;SDS011;70031;45.570;14.228;2023-06-26T09:19:36;5.45;;;3.40;;
75814;SDS011;70031;45.570;14.228;2023-06-26T09:21:41;5.90;;;3.72;;
75814;SDS011;70031;45.570;14.228;2023-06-26T09:23:43;7.38;;;3.25;;
75814;SDS011;70031;45.570;14.228;2023-06-26T09:25:43;6.25;;;3.35;;
75814;SDS011;70031;45.570;14.228;2023-06-26T09:27:47;4.95;;;3.00;;
75814;SDS011;70031;45.570;14.228;2023-06-26T09:29:47;5.25;;;3.30;;
75814;SDS011;70031;45.570;14.228;2023-06-26T09:31:49;6.18;;;3.53;;
75814;SDS011;70031;45.570;14.228;2023-06-26T09:33:53;5.45;;;3.45;;
75814;SDS011;70031;45.570;14.228;2023-06-26T09:36:07;5.53;;;3.30;;
75814;SDS011;70031;45.570;14.228;2023-06-26T09:38:09;7.10;;;3.72;;
75814;SDS011;70031;45.570;14.228;2023-06-26T09:40:10;5.53;;;3.20;;
75814;SDS011;70031;45.570;14.228;2023-06-26T09:42:13;9.23;;;3.80;;
75814;SDS011;70031;45.570;14.228;2023-06-26T09:44:14;4.95;;;3.20;;
75814;SDS011;70031;45.570;14.228;2023-06-26T09:46:15;5.30;;;3.35;;
75814;SDS011;70031;45.570;14.228;2023-06-26T09:48:28;6.05;;;3.00;;
75814;SDS011;70031;45.570;14.228;2023-06-26T09:50:34;5.22;;;3.25;;
75814;SDS011;70031;45.570;14.228;2023-06-26T09:52:42;7.88;;;3.55;;
75814;SDS011;70031;45.570;14.228;2023-06-26T09:54:46;4.95;;;3.10;;
75814;SDS011;70031;45.570;14.228;2023-06-26T09:56:51;5.53;;;3.13;;
75814;SDS011;70031;45.570;14.228;2023-06-26T09:58:55;6.90;;;3.00;;
75814;SDS011;70031;45.570;14.228;2023-06-26T10:01:10;5.80;;;3.47;;
75814;SDS011;70031;45.570;14.228;2023-06-26T10:03:20;4.97;;;3.08;;
75814;SDS011;70031;45.570;14.228;2023-06-26T10:05:21;5.30;;;3.45;;
75814;SDS011;70031;45.570;14.228;2023-06-26T10:07:23;6.38;;;3.35;;
75814;SDS011;70031;45.570;14.228;2023-06-26T10:09:24;5.88;;;3.28;;
75814;SDS011;70031;45.570;14.228;2023-06-26T10:11:25;5.13;;;3.13;;
75814;SDS011;70031;45.570;14.228;2023-06-26T10:13:34;11.88;;;7.60;;
75814;SDS011;70031;45.570;14.228;2023-06-26T10:15:38;9.48;;;5.65;;
75814;SDS011;70031;45.570;14.228;2023-06-26T10:17:41;6.18;;;3.53;;
75814;SDS011;70031;45.570;14.228;2023-06-26T10:19:45;5.47;;;3.38;;
75814;SDS011;70031;45.570;14.228;2023-06-26T10:21:46;8.60;;;4.82;;
75814;SDS011;70031;45.570;14.228;2023-06-26T10:23:47;10.15;;;5.18;;
75814;SDS011;70031;45.570;14.228;2023-06-26T10:27:55;9.00;;;3.83;;
75814;SDS011;70031;45.570;14.228;2023-06-26T10:30:00;7.95;;;3.60;;
75814;SDS011;70031;45.570;14.228;2023-06-26T10:32:03;4.65;;;2.90;;
75814;SDS011;70031;45.570;14.228;2023-06-26T10:34:05;5.60;;;3.10;;
75814;SDS011;70031;45.570;14.228;2023-06-26T10:36:16;4.53;;;2.63;;
75814;SDS011;70031;45.570;14.228;2023-06-26T10:40:27;6.18;;;3.10;;
75814;SDS011;70031;45.570;14.228;2023-06-26T10:42:34;5.30;;;2.80;;
75814;SDS011;70031;45.570;14.228;2023-06-26T10:44:46;5.25;;;2.70;;
75814;SDS011;70031;45.570;14.228;2023-06-26T10:46:50;5.70;;;3.00;;
75814;SDS011;70031;45.570;14.228;2023-06-26T10:48:58;4.72;;;2.72;;
75814;SDS011;70031;45.570;14.228;2023-06-26T10:51:07;5.85;;;2.80;;
75814;SDS011;70031;45.570;14.228;2023-06-26T10:55:26;4.90;;;2.97;;
75814;SDS011;70031;45.570;14.228;2023-06-26T10:57:27;5.28;;;2.78;;
75814;SDS011;70031;45.570;14.228;2023-06-26T10:59:29;7.90;;;3.00;;
75814;SDS011;70031;45.570;14.228;2023-06-26T11:01:30;4.07;;;2.63;;
75814;SDS011;70031;45.570;14.228;2023-06-26T11:03:42;5.10;;;2.95;;
75814;SDS011;70031;45.570;14.228;2023-06-26T11:05:44;5.13;;;3.15;;
75814;SDS011;70031;45.570;14.228;2023-06-26T11:08:02;15.45;;;2.80;;
75814;SDS011;70031;45.570;14.228;2023-06-26T11:12:06;6.97;;;2.60;;
75814;SDS011;70031;45.570;14.228;2023-06-26T11:14:06;4.25;;;2.50;;
75814;SDS011;70031;45.570;14.228;2023-06-26T11:16:08;4.75;;;2.85;;
75814;SDS011;70031;45.570;14.228;2023-06-26T11:18:09;6.22;;;2.60;;
75814;SDS011;70031;45.570;14.228;2023-06-26T11:20:11;4.85;;;2.72;;
75814;SDS011;70031;45.570;14.228;2023-06-26T11:22:13;8.25;;;3.00;;
75814;SDS011;70031;45.570;14.228;2023-06-26T11:26:19;6.22;;;3.00;;
75814;SDS011;70031;45.570;14.228;2023-06-26T11:28:23;5.30;;;2.88;;
75814;SDS011;70031;45.570;14.228;2023-06-26T11:30:25;5.53;;;2.83;;
75814;SDS011;70031;45.570;14.228;2023-06-26T11:32:28;4.43;;;2.80;;
75814;SDS011;70031;45.570;14.228;2023-06-26T11:34:29;4.93;;;2.80;;
75814;SDS011;70031;45.570;14.228;2023-06-26T11:36:30;5.60;;;3.10;;
75814;SDS011;70031;45.570;14.228;2023-06-26T11:38:36;5.03;;;2.53;;
75814;SDS011;70031;45.570;14.228;2023-06-26T11:40:38;5.20;;;2.92;;
75814;SDS011;70031;45.570;14.228;2023-06-26T11:42:38;4.35;;;2.53;;
75814;SDS011;70031;45.570;14.228;2023-06-26T11:44:42;7.82;;;3.10;;
75814;SDS011;70031;45.570;14.228;2023-06-26T11:46:43;5.25;;;3.05;;
75814;SDS011;70031;45.570;14.228;2023-06-26T11:48:43;5.75;;;3.50;;
75814;SDS011;70031;45.570;14.228;2023-06-26T11:50:44;6.53;;;3.28;;
75814;SDS011;70031;45.570;14.228;2023-06-26T11:52:45;5.50;;;2.83;;
75814;SDS011;70031;45.570;14.228;2023-06-26T11:54:45;6.85;;;2.78;;
75814;SDS011;70031;45.570;14.228;2023-06-26T11:56:51;4.93;;;3.10;;
75814;SDS011;70031;45.570;14.228;2023-06-26T11:58:56;9.13;;;3.92;;
75814;SDS011;70031;45.570;14.228;2023-06-26T12:01:00;18.48;;;3.90;;
75814;SDS011;70031;45.570;14.228;2023-06-26T12:03:01;12.38;;;3.17;;
75814;SDS011;70031;45.570;14.228;2023-06-26T12:05:03;9.45;;;3.42;;
75814;SDS011;70031;45.570;14.228;2023-06-26T12:07:04;4.60;;;2.88;;
75814;SDS011;70031;45.570;14.228;2023-06-26T12:09:08;5.45;;;2.92;;
75814;SDS011;70031;45.570;14.228;2023-06-26T12:11:12;5.57;;;3.25;;
75814;SDS011;70031;45.570;14.228;2023-06-26T12:13:13;6.85;;;3.17;;
75814;SDS011;70031;45.570;14.228;2023-06-26T12:15:14;5.35;;;3.00;;
75814;SDS011;70031;45.570;14.228;2023-06-26T12:17:15;4.45;;;2.42;;
75814;SDS011;70031;45.570;14.228;2023-06-26T12:19:16;8.93;;;3.22;;
75814;SDS011;70031;45.570;14.228;2023-06-26T12:23:44;5.15;;;2.50;;
75814;SDS011;70031;45.570;14.228;2023-06-26T12:25:44;8.13;;;2.97;;
75814;SDS011;70031;45.570;14.228;2023-06-26T12:27:46;6.13;;;2.70;;
75814;SDS011;70031;45.570;14.228;2023-06-26T12:29:52;6.53;;;3.28;;
75814;SDS011;70031;45.570;14.228;2023-06-26T12:31:54;5.70;;;2.90;;
75814;SDS011;70031;45.570;14.228;2023-06-26T12:33:54;8.27;;;2.83;;